Time;durP1;ratioP1;P1;durP2;ratioP2;P2;SDS_P1;SDS_P2;PMS_P1;PMS_P2;Temp;Humidity;BMP_temperature;BMP_pressure;BME280_temperature;BME280_humidity;BME280_pressure;Samples;Min_cycle;Max_cycle;Signal;HPM_P1;HPM_P2
2023/01/25 00:03:50;;;;;;;;;;;18.30;35.40;;;;;;8363059;28;19962;-47
2023/01/25 00:07:50;;;;;;;;;;;18.30;35.40;;;;;;8366811;28;19921;-45
2023/01/25 00:11:52;;;;;;;;;;;18.20;35.40;;;;;;8368504;28;19996;-46
2023/01/25 00:15:52;;;;;;;;;;;18.30;35.50;;;;;;8369196;28;19924;-46
2023/01/25 00:19:52;;;;;;;;;;;18.20;35.50;;;;;;8368683;28;20427;-46
2023/01/25 00:23:53;;;;;;;;;;;18.20;35.60;;;;;;8368408;28;20030;-46
2023/01/25 00:27:53;;;;;;;;;;;18.10;35.50;;;;;;8368647;28;19970;-45
2023/01/25 00:31:55;;;;;;;;;;;18.10;35.60;;;;;;8368380;28;19928;-45
2023/01/25 00:35:55;;;;;;;;;;;18.10;35.60;;;;;;8367893;28;19917;-45
2023/01/25 00:39:56;;;;;;;;;;;18.10;35.60;;;;;;8368189;28;20294;-46
2023/01/25 00:43:57;;;;;;;;;;;18.10;35.60;;;;;;8367801;28;19917;-48
2023/01/25 00:47:57;;;;;;;;;;;18.10;35.60;;;;;;8367438;28;20003;-45
2023/01/25 00:51:58;;;;;;;;;;;18.00;35.60;;;;;;8367955;28;19939;-45
2023/01/25 00:55:58;;;;;;;;;;;18.00;35.60;;;;;;8368087;28;19921;-45
2023/01/25 00:59:59;;;;;;;;;;;18.00;35.60;;;;;;8367050;28;19967;-44
2023/01/25 01:03:59;;;;;;;;;;;18.00;35.60;;;;;;8368156;28;19912;-45
2023/01/25 01:07:59;;;;;;;;;;;18.00;35.60;;;;;;8367109;28;19924;-45
2023/01/25 01:12:00;;;;;;;;;;;18.00;35.70;;;;;;8366691;28;19960;-46
2023/01/25 01:16:01;;;;;;;;;;;18.00;35.70;;;;;;8367238;28;19917;-45
2023/01/25 01:20:02;;;;;;;;;;;17.90;35.70;;;;;;8365870;28;19924;-45
2023/01/25 01:24:02;;;;;;;;;;;17.90;35.80;;;;;;8366427;28;19913;-46
2023/01/25 01:28:03;;;;;;;;;;;17.90;36.30;;;;;;8366427;28;19916;-46
2023/01/25 01:32:03;;;;;;;;;;;17.90;35.70;;;;;;8366571;28;19926;-45
2023/01/25 01:36:07;;;;;;;;;;;17.90;35.70;;;;;;8366380;28;19917;-46
2023/01/25 01:40:12;;;;;;;;;;;17.90;35.70;;;;;;8366176;28;19916;-47
2023/01/25 01:44:17;;;;;;;;;;;17.90;35.70;;;;;;8366434;28;19919;-45
2023/01/25 01:48:18;;;;;;;;;;;17.90;35.70;;;;;;8365873;28;20427;-46
2023/01/25 01:52:19;;;;;;;;;;;17.90;35.70;;;;;;8366005;28;20371;-46
2023/01/25 01:56:28;;;;;;;;;;;17.90;35.70;;;;;;8365721;28;19925;-46
2023/01/25 02:00:31;;;;;;;;;;;17.90;35.70;;;;;;8365933;28;20016;-45
2023/01/25 02:04:32;;;;;;;;;;;17.90;35.80;;;;;;8365923;28;19913;-46
2023/01/25 02:08:35;;;;;;;;;;;17.90;35.80;;;;;;8360902;28;19971;-47
2023/01/25 02:12:35;;;;;;;;;;;17.80;35.80;;;;;;8355184;28;20012;-45
2023/01/25 02:16:36;;;;;;;;;;;17.90;35.80;;;;;;8365043;28;19969;-46
2023/01/25 02:20:38;;;;;;;;;;;17.90;35.80;;;;;;8364503;28;20079;-46
2023/01/25 02:24:41;;;;;;;;;;;17.80;35.80;;;;;;8365358;28;20324;-46
2023/01/25 02:28:51;;;;;;;;;;;17.80;35.80;;;;;;8364296;28;20369;-46
2023/01/25 02:32:51;;;;;;;;;;;17.80;35.80;;;;;;8364184;28;19917;-45
2023/01/25 02:36:52;;;;;;;;;;;17.80;35.80;;;;;;8364669;28;19917;-46
2023/01/25 02:40:54;;;;;;;;;;;17.80;35.80;;;;;;8364617;28;19942;-45
2023/01/25 02:44:55;;;;;;;;;;;17.80;35.80;;;;;;8363977;28;19913;-45
2023/01/25 02:48:56;;;;;;;;;;;17.80;35.80;;;;;;8363964;28;19947;-46
2023/01/25 02:52:56;;;;;;;;;;;17.80;35.80;;;;;;8364012;28;20336;-45
2023/01/25 02:56:57;;;;;;;;;;;17.80;35.90;;;;;;8363289;28;19970;-45
2023/01/25 03:00:57;;;;;;;;;;;17.70;35.90;;;;;;8364131;28;19913;-45
2023/01/25 03:04:58;;;;;;;;;;;17.70;35.90;;;;;;8364096;28;19916;-45
2023/01/25 03:08:58;;;;;;;;;;;17.70;35.90;;;;;;8363351;28;20262;-44
2023/01/25 03:12:59;;;;;;;;;;;17.70;35.90;;;;;;8363599;28;19940;-45
2023/01/25 03:16:59;;;;;;;;;;;17.70;35.90;;;;;;8363300;28;20857;-45
2023/01/25 03:21:04;;;;;;;;;;;17.70;35.90;;;;;;8362872;28;19999;-45
2023/01/25 03:25:05;;;;;;;;;;;17.70;35.90;;;;;;8363662;28;19940;-45
2023/01/25 03:29:05;;;;;;;;;;;17.70;35.90;;;;;;8362933;28;19929;-46
2023/01/25 03:33:07;;;;;;;;;;;17.70;35.90;;;;;;8362643;28;19981;-44
2023/01/25 03:37:07;;;;;;;;;;;17.70;35.90;;;;;;8363046;28;19928;-46
2023/01/25 03:41:08;;;;;;;;;;;17.70;35.90;;;;;;8364355;28;19916;-45
2023/01/25 03:45:08;;;;;;;;;;;17.60;35.80;;;;;;8369568;28;19913;-46
2023/01/25 03:49:09;;;;;;;;;;;17.60;35.90;;;;;;8369684;28;19925;-46
2023/01/25 03:53:19;;;;;;;;;;;17.60;35.90;;;;;;8369461;28;19928;-45
2023/01/25 03:57:19;;;;;;;;;;;17.60;35.90;;;;;;8369369;28;19924;-46
2023/01/25 04:01:19;;;;;;;;;;;17.60;35.90;;;;;;8369463;28;20297;-46
2023/01/25 04:05:20;;;;;;;;;;;17.60;35.90;;;;;;8369129;28;19916;-46
2023/01/25 04:09:20;;;;;;;;;;;17.60;35.90;;;;;;8368900;28;20398;-46
2023/01/25 04:13:21;;;;;;;;;;;17.60;35.90;;;;;;8369067;28;19941;-45
2023/01/25 04:17:22;;;;;;;;;;;17.60;35.90;;;;;;8368260;28;19920;-45
2023/01/25 04:21:22;;;;;;;;;;;17.60;35.90;;;;;;8368662;28;19978;-45
2023/01/25 04:25:23;;;;;;;;;;;17.60;35.90;;;;;;8368987;28;19986;-45
2023/01/25 04:29:23;;;;;;;;;;;17.60;36.00;;;;;;8367821;28;19929;-45
2023/01/25 04:33:24;;;;;;;;;;;17.60;35.90;;;;;;8368351;28;19927;-45
2023/01/25 04:37:25;;;;;;;;;;;17.60;36.00;;;;;;8368168;28;19992;-46
2023/01/25 04:41:28;;;;;;;;;;;17.60;35.90;;;;;;8367592;28;20357;-46
2023/01/25 04:45:28;;;;;;;;;;;17.60;35.90;;;;;;8368291;28;20278;-45
2023/01/25 04:49:28;;;;;;;;;;;17.60;35.90;;;;;;8367705;28;19932;-45
2023/01/25 04:53:29;;;;;;;;;;;17.50;35.90;;;;;;8367211;28;20422;-45
2023/01/25 04:57:29;;;;;;;;;;;17.60;35.90;;;;;;8367692;28;19982;-46
2023/01/25 05:01:32;;;;;;;;;;;17.60;35.90;;;;;;8365285;28;19917;-46
2023/01/25 05:05:34;;;;;;;;;;;17.60;35.90;;;;;;8366490;28;22353;-47
2023/01/25 05:09:34;;;;;;;;;;;17.60;36.00;;;;;;8367258;28;19947;-45
2023/01/25 05:13:35;;;;;;;;;;;17.60;36.00;;;;;;8367250;28;20370;-46
2023/01/25 05:17:35;;;;;;;;;;;17.60;36.00;;;;;;8366178;28;19913;-46
2023/01/25 05:30:13;;;;;;;;;;;17.90;35.70;;;;;;8366288;28;19932;-46
2023/01/25 05:34:14;;;;;;;;;;;18.00;35.70;;;;;;8366427;28;19917;-47
2023/01/25 05:38:14;;;;;;;;;;;18.10;35.60;;;;;;8366162;28;20273;-46
2023/01/25 05:42:16;;;;;;;;;;;18.10;35.60;;;;;;8365594;28;19947;-46
2023/01/25 05:46:17;;;;;;;;;;;18.20;35.50;;;;;;8366265;28;19923;-46
2023/01/25 05:50:17;;;;;;;;;;;18.20;35.50;;;;;;8365827;28;20341;-46
2023/01/25 05:54:18;;;;;;;;;;;18.30;35.50;;;;;;8365242;28;20437;-45
2023/01/25 05:58:18;;;;;;;;;;;18.30;35.40;;;;;;8365471;28;19974;-46
2023/01/25 06:02:19;;;;;;;;;;;18.30;35.40;;;;;;8365098;28;20370;-43
2023/01/25 06:06:19;;;;;;;;;;;18.40;35.40;;;;;;8365110;28;19913;-46
2023/01/25 06:10:20;;;;;;;;;;;18.40;35.40;;;;;;8365416;28;19970;-46
2023/01/25 06:14:22;;;;;;;;;;;18.50;35.40;;;;;;8364674;28;20336;-47
2023/01/25 06:18:25;;;;;;;;;;;18.50;35.40;;;;;;8364872;28;20011;-48
2023/01/25 06:22:26;;;;;;;;;;;18.50;35.40;;;;;;8364893;28;20378;-46
2023/01/25 06:26:26;;;;;;;;;;;18.50;35.90;;;;;;8364497;28;19917;-46
2023/01/25 06:30:27;;;;;;;;;;;18.60;35.30;;;;;;8364720;28;19925;-46
2023/01/25 06:34:27;;;;;;;;;;;18.60;35.30;;;;;;8364553;28;19917;-45
2023/01/25 06:38:28;;;;;;;;;;;18.60;35.30;;;;;;8363858;28;19917;-46
2023/01/25 06:42:28;;;;;;;;;;;18.70;35.30;;;;;;8364319;28;19917;-46
2023/01/25 06:46:30;;;;;;;;;;;18.70;35.30;;;;;;8364453;28;19920;-46
2023/01/25 06:50:31;;;;;;;;;;;18.70;35.30;;;;;;8363541;28;19978;-46
2023/01/25 06:54:31;;;;;;;;;;;18.80;35.30;;;;;;8363919;28;20389;-49
2023/01/25 06:58:32;;;;;;;;;;;18.80;35.30;;;;;;8363725;28;19982;-45
2023/01/25 07:02:33;;;;;;;;;;;18.80;35.30;;;;;;8363255;28;19962;-47
2023/01/25 07:06:33;;;;;;;;;;;18.80;35.30;;;;;;8363811;28;20275;-46
2023/01/25 07:10:33;;;;;;;;;;;18.90;35.30;;;;;;8363431;28;20457;-46
2023/01/25 07:14:34;;;;;;;;;;;18.90;35.30;;;;;;8362836;28;20358;-46
2023/01/25 07:18:37;;;;;;;;;;;18.90;35.20;;;;;;8362510;28;19923;-46
2023/01/25 07:22:38;;;;;;;;;;;18.90;35.20;;;;;;8363300;28;20325;-48
2023/01/25 07:26:38;;;;;;;;;;;18.90;35.20;;;;;;8362976;28;19925;-46
2023/01/25 07:30:39;;;;;;;;;;;19.00;35.20;;;;;;8363064;28;20412;-47
2023/01/25 07:34:39;;;;;;;;;;;19.00;35.20;;;;;;8363142;28;19939;-46
2023/01/25 07:38:40;;;;;;;;;;;19.00;35.20;;;;;;8362498;28;19917;-46
2023/01/25 07:42:41;;;;;;;;;;;19.00;35.20;;;;;;8363124;28;19952;-47
2023/01/25 07:46:41;;;;;;;;;;;19.00;35.30;;;;;;8362112;28;19958;-46
2023/01/25 07:50:45;;;;;;;;;;;19.10;35.30;;;;;;8362415;28;19925;-47
2023/01/25 07:54:48;;;;;;;;;;;19.10;35.20;;;;;;8363181;28;20298;-48
2023/01/25 07:58:48;;;;;;;;;;;19.10;35.20;;;;;;8362877;28;19970;-46
2023/01/25 08:02:49;;;;;;;;;;;19.10;35.20;;;;;;8362516;28;20638;-49
2023/01/25 08:06:50;;;;;;;;;;;19.10;35.10;;;;;;8362180;28;19947;-47
2023/01/25 08:10:50;;;;;;;;;;;19.10;35.20;;;;;;8359338;28;19928;-46
2023/01/25 08:14:51;;;;;;;;;;;19.10;35.10;;;;;;8362187;28;20373;-48
2023/01/25 08:18:53;;;;;;;;;;;19.10;35.10;;;;;;8362433;28;19924;-49
2023/01/25 08:22:54;;;;;;;;;;;19.10;35.60;;;;;;8362611;28;20015;-48
2023/01/25 08:26:54;;;;;;;;;;;19.10;35.10;;;;;;8363142;28;19962;-46
2023/01/25 08:31:03;;;;;;;;;;;19.10;35.10;;;;;;8368641;28;19925;-45
2023/01/25 08:35:03;;;;;;;;;;;19.00;35.10;;;;;;8368624;28;19917;-46
2023/01/25 08:39:05;;;;;;;;;;;19.00;35.10;;;;;;8367750;28;19916;-46
2023/01/25 08:43:05;;;;;;;;;;;18.90;35.10;;;;;;8368166;28;19927;-45
2023/01/25 08:47:06;;;;;;;;;;;18.90;35.10;;;;;;8368210;28;19912;-47
2023/01/25 08:51:07;;;;;;;;;;;18.90;35.10;;;;;;8367377;28;19964;-46
2023/01/25 08:55:08;;;;;;;;;;;18.90;35.10;;;;;;8367693;28;20409;-46
2023/01/25 08:59:12;;;;;;;;;;;18.80;35.10;;;;;;8367622;28;19924;-46
2023/01/25 09:03:13;;;;;;;;;;;18.80;35.20;;;;;;8367295;28;19924;-45
2023/01/25 09:07:13;;;;;;;;;;;18.80;35.20;;;;;;8368023;28;19913;-45
2023/01/25 09:11:18;;;;;;;;;;;18.80;35.20;;;;;;8367158;28;19924;-46
2023/01/25 09:15:19;;;;;;;;;;;18.70;35.80;;;;;;8366684;28;19924;-46
2023/01/25 09:19:19;;;;;;;;;;;18.70;35.30;;;;;;8367192;28;20282;-46
2023/01/25 09:23:22;;;;;;;;;;;18.60;35.30;;;;;;8366219;28;19950;-44
2023/01/25 09:27:23;;;;;;;;;;;18.60;35.40;;;;;;8366830;28;19913;-46
2023/01/25 09:31:23;;;;;;;;;;;18.50;35.40;;;;;;8366228;28;19956;-46
2023/01/25 09:35:24;;;;;;;;;;;18.50;35.40;;;;;;8365419;28;19974;-46
2023/01/25 09:39:25;;;;;;;;;;;18.50;35.50;;;;;;8364991;28;19920;-45
2023/01/25 09:43:44;;;;;;;;;;;18.50;35.50;;;;;;8366053;28;19917;-43
2023/01/25 09:47:44;;;;;;;;;;;18.50;35.50;;;;;;8365469;28;19919;-45
2023/01/25 09:51:51;;;;;;;;;;;18.50;35.50;;;;;;8365376;28;19924;-46
2023/01/25 09:55:54;;;;;;;;;;;18.40;35.50;;;;;;8365344;28;19921;-47
2023/01/25 09:59:55;;;;;;;;;;;18.40;35.50;;;;;;8364765;28;19952;-45
2023/01/25 10:04:00;;;;;;;;;;;18.40;35.60;;;;;;8365202;28;19917;-45
2023/01/25 10:08:22;;;;;;;;;;;18.40;35.60;;;;;;8364328;28;20099;-46
2023/01/25 10:12:24;;;;;;;;;;;18.30;35.60;;;;;;8347835;28;20003;-47
2023/01/25 10:16:49;;;;;;;;;;;18.30;35.60;;;;;;8365290;28;20293;-45
2023/01/25 10:20:51;;;;;;;;;;;18.30;35.60;;;;;;8364260;28;19924;-47
2023/01/25 10:25:17;;;;;;;;;;;18.30;35.60;;;;;;8364819;28;20023;-45
2023/01/25 10:29:18;;;;;;;;;;;18.20;35.60;;;;;;8364615;28;19951;-46
2023/01/25 10:33:19;;;;;;;;;;;18.20;35.60;;;;;;8363970;28;20000;-46
2023/01/25 10:37:22;;;;;;;;;;;18.20;35.70;;;;;;8364804;28;19912;-45
2023/01/25 10:41:25;;;;;;;;;;;18.20;35.70;;;;;;8362648;28;20293;-45
2023/01/25 10:45:26;;;;;;;;;;;18.20;35.70;;;;;;8364531;28;19917;-46
2023/01/25 10:49:31;;;;;;;;;;;18.20;35.70;;;;;;8364184;28;19971;-46
2023/01/25 10:53:35;;;;;;;;;;;18.20;35.70;;;;;;8363607;28;19920;-46
2023/01/25 10:57:37;;;;;;;;;;;18.10;35.70;;;;;;8364046;28;20358;-46
2023/01/25 11:01:37;;;;;;;;;;;18.10;35.70;;;;;;8363623;28;19927;-45
2023/01/25 11:05:38;;;;;;;;;;;18.10;35.70;;;;;;8363162;28;19913;-46
2023/01/25 11:09:39;;;;;;;;;;;18.10;35.80;;;;;;8356016;28;19921;-46
2023/01/25 11:13:40;;;;;;;;;;;18.10;35.70;;;;;;8332050;28;19964;-46
2023/01/25 11:17:40;;;;;;;;;;;18.10;35.80;;;;;;8363052;28;20371;-44
2023/01/25 11:21:50;;;;;;;;;;;18.10;35.70;;;;;;8363065;28;20012;-44
2023/01/25 11:25:51;;;;;;;;;;;18.10;35.80;;;;;;8363070;28;19913;-46
2023/01/25 11:30:03;;;;;;;;;;;18.00;35.70;;;;;;8362426;28;20431;-47
2023/01/25 11:34:07;;;;;;;;;;;18.00;35.80;;;;;;8362594;28;20366;-44
2023/01/25 11:38:12;;;;;;;;;;;18.00;35.80;;;;;;8362879;28;19999;-45
2023/01/25 11:42:33;;;;;;;;;;;18.00;35.80;;;;;;8361945;28;19963;-47
2023/01/25 11:46:44;;;;;;;;;;;17.90;35.70;;;;;;8362028;28;19917;-46
2023/01/25 11:50:49;;;;;;;;;;;17.90;35.80;;;;;;8362107;28;20346;-46
2023/01/25 11:54:54;;;;;;;;;;;17.90;35.80;;;;;;8362505;28;19920;-45
2023/01/25 11:59:03;;;;;;;;;;;18.00;35.80;;;;;;8363164;28;20011;-45
2023/01/25 12:03:07;;;;;;;;;;;17.90;35.70;;;;;;8365417;28;19916;-48
2023/01/25 12:07:11;;;;;;;;;;;17.90;35.70;;;;;;8369006;28;19921;-46
2023/01/25 12:11:30;;;;;;;;;;;17.90;35.70;;;;;;8369264;28;19956;-46
2023/01/25 12:15:57;;;;;;;;;;;17.90;35.80;;;;;;8369456;28;19916;-45
2023/01/25 12:20:33;;;;;;;;;;;17.90;35.80;;;;;;8337877;28;19928;-46
2023/01/25 12:24:41;;;;;;;;;;;17.80;35.80;;;;;;8246436;28;19924;-44
2023/01/25 12:28:43;;;;;;;;;;;17.90;35.80;;;;;;8368633;28;20326;-46
2023/01/25 12:32:54;;;;;;;;;;;17.90;35.80;;;;;;8367903;28;19924;-45
2023/01/25 12:36:56;;;;;;;;;;;17.80;35.70;;;;;;8368059;28;19963;-45
2023/01/25 12:40:58;;;;;;;;;;;17.90;35.80;;;;;;8364914;28;19917;-45
2023/01/25 12:45:16;;;;;;;;;;;17.80;35.80;;;;;;8364921;28;19920;-48
2023/01/25 12:49:26;;;;;;;;;;;17.80;35.80;;;;;;8367236;28;19921;-45
2023/01/25 12:53:35;;;;;;;;;;;17.80;35.80;;;;;;8363723;28;20293;-42
2023/01/25 12:57:41;;;;;;;;;;;17.80;35.80;;;;;;8361583;28;19943;-46
2023/01/25 13:01:48;;;;;;;;;;;17.80;35.80;;;;;;8367274;28;19966;-45
2023/01/25 13:05:51;;;;;;;;;;;17.80;35.80;;;;;;8366558;28;19940;-45
2023/01/25 13:09:58;;;;;;;;;;;17.80;35.80;;;;;;8367102;28;19921;-44
2023/01/25 13:14:16;;;;;;;;;;;17.80;35.80;;;;;;8365794;28;19916;-45
2023/01/25 13:18:23;;;;;;;;;;;17.80;35.80;;;;;;8366455;28;19917;-47
2023/01/25 13:22:41;;;;;;;;;;;17.80;35.80;;;;;;8366512;28;20175;-45
2023/01/25 13:26:51;;;;;;;;;;;17.80;35.90;;;;;;8366005;28;19920;-46
2023/01/25 13:30:52;;;;;;;;;;;17.80;35.80;;;;;;8366680;28;19929;-46
2023/01/25 13:34:52;;;;;;;;;;;17.70;35.80;;;;;;8366271;28;19921;-48
2023/01/25 13:38:53;;;;;;;;;;;17.70;35.80;;;;;;8365789;28;20028;-47
2023/01/25 13:43:04;;;;;;;;;;;17.70;35.90;;;;;;8365944;28;20389;-47
2023/01/25 13:47:09;;;;;;;;;;;17.70;35.80;;;;;;8366029;28;19913;-46
2023/01/25 13:51:13;;;;;;;;;;;17.70;35.80;;;;;;8364999;28;19960;-46
2023/01/25 13:55:16;;;;;;;;;;;17.70;35.80;;;;;;8365301;28;19927;-45
2023/01/25 13:59:23;;;;;;;;;;;17.70;35.90;;;;;;8365429;28;20285;-45
2023/01/25 14:03:25;;;;;;;;;;;17.70;35.80;;;;;;8364712;28;19917;-45
2023/01/25 14:07:29;;;;;;;;;;;17.70;35.80;;;;;;8365318;28;19917;-46
2023/01/25 14:11:30;;;;;;;;;;;17.70;35.80;;;;;;8363169;28;19925;-47
2023/01/25 14:15:31;;;;;;;;;;;17.70;35.80;;;;;;8365181;28;19917;-46
2023/01/25 14:19:34;;;;;;;;;;;17.70;35.80;;;;;;8364902;28;19917;-45
2023/01/25 14:23:35;;;;;;;;;;;17.70;35.80;;;;;;8364194;28;19916;-46
2023/01/25 14:27:39;;;;;;;;;;;17.70;35.70;;;;;;8363692;28;19983;-46
2023/01/25 14:31:40;;;;;;;;;;;17.70;35.80;;;;;;8364197;28;19928;-46
2023/01/25 14:35:41;;;;;;;;;;;17.70;35.70;;;;;;8363772;28;19978;-45
2023/01/25 14:39:41;;;;;;;;;;;17.70;35.70;;;;;;8364486;28;20336;-46
2023/01/25 14:43:44;;;;;;;;;;;17.70;35.70;;;;;;8363775;28;19917;-45
2023/01/25 14:47:44;;;;;;;;;;;17.70;35.70;;;;;;8363157;28;19923;-45
2023/01/25 14:51:49;;;;;;;;;;;17.70;35.70;;;;;;8363440;28;19924;-46
2023/01/25 14:55:50;;;;;;;;;;;17.70;35.70;;;;;;8363617;28;20439;-45
2023/01/25 14:59:52;;;;;;;;;;;17.60;35.70;;;;;;8331694;28;19921;-45
2023/01/25 15:03:53;;;;;;;;;;;17.60;35.70;;;;;;8362741;28;19917;-45
2023/01/25 15:07:54;;;;;;;;;;;17.60;35.70;;;;;;8362733;28;19917;-45
2023/01/25 15:11:58;;;;;;;;;;;17.60;35.70;;;;;;8362781;28;20343;-45
2023/01/25 15:16:01;;;;;;;;;;;17.60;35.70;;;;;;8362809;28;19916;-46
2023/01/25 15:20:01;;;;;;;;;;;17.60;35.70;;;;;;8363357;28;19924;-45
2023/01/25 15:24:05;;;;;;;;;;;17.60;35.70;;;;;;8362575;28;20370;-46
2023/01/25 15:28:11;;;;;;;;;;;17.60;35.70;;;;;;8362816;28;20024;-44
2023/01/25 15:32:19;;;;;;;;;;;17.60;35.70;;;;;;8362703;28;19968;-44
2023/01/25 15:36:20;;;;;;;;;;;17.60;35.70;;;;;;8361671;28;20392;-44
2023/01/25 15:40:21;;;;;;;;;;;17.60;35.70;;;;;;8362858;28;19913;-45
2023/01/25 15:44:22;;;;;;;;;;;17.60;35.80;;;;;;8362404;28;19921;-42
2023/01/25 15:48:28;;;;;;;;;;;17.60;35.70;;;;;;8362823;28;19917;-48
2023/01/25 15:52:28;;;;;;;;;;;17.60;35.80;;;;;;8362320;28;19929;-46
2023/01/25 15:56:31;;;;;;;;;;;17.60;35.70;;;;;;8361718;28;20373;-45
2023/01/25 16:00:32;;;;;;;;;;;17.60;35.80;;;;;;8362230;28;19913;-45
2023/01/25 16:04:32;;;;;;;;;;;17.60;35.80;;;;;;8362521;28;19924;-45
2023/01/25 16:08:33;;;;;;;;;;;17.60;35.80;;;;;;8361520;28;19917;-45
2023/01/25 16:12:35;;;;;;;;;;;17.60;35.90;;;;;;8349255;28;19918;-46
2023/01/25 16:16:40;;;;;;;;;;;17.60;35.80;;;;;;8338425;28;20007;-43
2023/01/25 16:20:42;;;;;;;;;;;17.70;35.80;;;;;;8346603;28;20007;-47
2023/01/25 16:24:43;;;;;;;;;;;17.80;35.80;;;;;;8362122;28;19952;-45
2023/01/25 16:28:43;;;;;;;;;;;17.90;36.00;;;;;;8358476;28;19917;-42
2023/01/25 16:32:45;;;;;;;;;;;18.00;35.90;;;;;;8357701;28;20289;-43
2023/01/25 16:36:49;;;;;;;;;;;18.10;35.80;;;;;;8361150;28;19963;-43
2023/01/25 16:40:49;;;;;;;;;;;18.10;35.70;;;;;;8361479;28;19920;-44
2023/01/25 16:44:49;;;;;;;;;;;18.20;35.70;;;;;;8361235;28;20326;-44
2023/01/25 16:48:51;;;;;;;;;;;18.20;36.20;;;;;;8363820;28;19921;-44
2023/01/25 16:52:53;;;;;;;;;;;18.20;35.50;;;;;;8367609;28;20373;-45
2023/01/25 16:56:54;;;;;;;;;;;18.30;35.50;;;;;;8364509;28;19974;-43
2023/01/25 17:00:54;;;;;;;;;;;18.30;35.50;;;;;;8366879;28;19913;-44
2023/01/25 17:04:54;;;;;;;;;;;18.40;35.50;;;;;;8366929;28;19917;-44
2023/01/25 17:08:56;;;;;;;;;;;18.40;35.50;;;;;;8355698;28;19921;-44
2023/01/25 17:12:56;;;;;;;;;;;18.50;35.50;;;;;;8351028;28;19959;-44
2023/01/25 17:16:56;;;;;;;;;;;18.50;35.40;;;;;;8366768;28;19920;-46
2023/01/25 17:20:57;;;;;;;;;;;18.50;35.30;;;;;;8366218;28;20357;-44
2023/01/25 17:24:57;;;;;;;;;;;18.60;35.40;;;;;;8367022;28;19928;-45
2023/01/25 17:29:00;;;;;;;;;;;18.60;35.30;;;;;;8366394;28;19932;-45
2023/01/25 17:33:01;;;;;;;;;;;18.60;35.30;;;;;;8365764;28;19916;-43
2023/01/25 17:37:01;;;;;;;;;;;18.60;35.30;;;;;;8365824;28;19912;-43
2023/01/25 17:41:02;;;;;;;;;;;18.70;35.30;;;;;;8366294;28;19924;-44
2023/01/25 17:45:03;;;;;;;;;;;18.60;35.30;;;;;;8365499;28;19917;-43
2023/01/25 17:49:04;;;;;;;;;;;18.70;35.20;;;;;;8365654;28;19928;-43
2023/01/25 17:53:05;;;;;;;;;;;18.70;35.20;;;;;;8365748;28;20000;-43
2023/01/25 17:57:06;;;;;;;;;;;18.70;35.10;;;;;;8364664;28;19925;-45
2023/01/25 18:01:10;;;;;;;;;;;18.80;35.10;;;;;;8365277;28;20352;-43
2023/01/25 18:05:11;;;;;;;;;;;18.80;35.10;;;;;;8365484;28;19924;-43
2023/01/25 18:09:11;;;;;;;;;;;18.80;35.10;;;;;;8364757;28;20381;-44
2023/01/25 18:13:12;;;;;;;;;;;18.80;35.10;;;;;;8365358;28;19917;-44
2023/01/25 18:17:12;;;;;;;;;;;18.90;35.10;;;;;;8364859;28;19913;-44
2023/01/25 18:21:15;;;;;;;;;;;18.90;35.10;;;;;;8364505;28;20285;-44
2023/01/25 18:25:26;;;;;;;;;;;18.90;35.10;;;;;;8364847;28;19964;-45
2023/01/25 18:29:26;;;;;;;;;;;18.90;35.10;;;;;;8364008;28;19929;-45
2023/01/25 18:33:27;;;;;;;;;;;18.90;35.00;;;;;;8364718;28;19920;-44
2023/01/25 18:37:32;;;;;;;;;;;19.00;35.10;;;;;;8364469;28;19921;-44
2023/01/25 18:41:32;;;;;;;;;;;19.00;35.00;;;;;;8363637;28;19917;-44
2023/01/25 18:45:33;;;;;;;;;;;19.00;35.00;;;;;;8364391;28;20397;-44
2023/01/25 18:49:33;;;;;;;;;;;19.00;35.00;;;;;;8363822;28;19924;-43
2023/01/25 18:53:35;;;;;;;;;;;19.10;35.00;;;;;;8363481;28;19963;-44
2023/01/25 18:57:35;;;;;;;;;;;19.10;34.90;;;;;;8362295;28;20266;-43
2023/01/25 19:01:36;;;;;;;;;;;19.10;35.10;;;;;;8363345;28;19960;-44
2023/01/25 19:05:36;;;;;;;;;;;19.10;34.90;;;;;;8362792;28;19916;-44
2023/01/25 19:09:36;;;;;;;;;;;19.10;34.90;;;;;;8363316;28;19931;-45
2023/01/25 19:13:38;;;;;;;;;;;19.10;34.90;;;;;;8363522;28;20008;-45
2023/01/25 19:17:38;;;;;;;;;;;19.20;34.90;;;;;;8363120;28;19920;-44
2023/01/25 19:21:39;;;;;;;;;;;19.20;34.80;;;;;;8363608;28;19919;-44
2023/01/25 19:25:39;;;;;;;;;;;19.20;34.90;;;;;;8363469;28;19970;-45
2023/01/25 19:29:40;;;;;;;;;;;19.20;34.80;;;;;;8362434;28;20412;-45
2023/01/25 19:33:41;;;;;;;;;;;19.30;34.90;;;;;;8363453;28;19924;-44
2023/01/25 19:37:41;;;;;;;;;;;19.30;34.90;;;;;;8363137;28;19917;-44
2023/01/25 19:41:42;;;;;;;;;;;19.30;34.80;;;;;;8362747;28;19913;-44
2023/01/25 19:45:42;;;;;;;;;;;19.30;34.80;;;;;;8362917;28;19940;-44
2023/01/25 19:49:42;;;;;;;;;;;19.30;34.90;;;;;;8362853;28;20012;-44
2023/01/25 19:53:45;;;;;;;;;;;19.30;34.80;;;;;;8362316;28;19932;-44
2023/01/25 19:57:45;;;;;;;;;;;19.40;34.80;;;;;;8362642;28;19953;-44
2023/01/25 20:01:46;;;;;;;;;;;19.40;34.80;;;;;;8362767;28;19920;-44
2023/01/25 20:05:55;;;;;;;;;;;19.40;34.80;;;;;;8362559;28;19971;-44
2023/01/25 20:09:55;;;;;;;;;;;19.40;34.80;;;;;;8361476;28;20008;-44
2023/01/25 20:13:57;;;;;;;;;;;19.40;34.70;;;;;;8362477;28;19917;-44
2023/01/25 20:17:58;;;;;;;;;;;19.50;34.70;;;;;;8361990;28;19927;-45
2023/01/25 20:21:58;;;;;;;;;;;19.50;34.70;;;;;;8362744;28;19913;-44
2023/01/25 20:26:00;;;;;;;;;;;19.50;34.70;;;;;;8368215;28;19917;-44
2023/01/25 20:30:00;;;;;;;;;;;19.50;34.70;;;;;;8368096;28;20006;-44
2023/01/25 20:34:02;;;;;;;;;;;19.50;34.70;;;;;;8368518;28;19923;-44
2023/01/25 20:38:03;;;;;;;;;;;19.50;34.60;;;;;;8368644;28;20370;-46
2023/01/25 20:42:03;;;;;;;;;;;19.50;34.60;;;;;;8367748;28;19920;-44
2023/01/25 20:46:04;;;;;;;;;;;19.50;34.60;;;;;;8368046;28;19917;-44
2023/01/25 20:50:04;;;;;;;;;;;19.60;34.60;;;;;;8367738;28;19967;-44
2023/01/25 20:54:05;;;;;;;;;;;19.60;34.60;;;;;;8367121;28;19921;-45
2023/01/25 20:58:06;;;;;;;;;;;19.60;34.50;;;;;;8368020;28;19924;-44
2023/01/25 21:02:08;;;;;;;;;;;19.60;34.60;;;;;;8367875;28;19913;-45
2023/01/25 21:06:09;;;;;;;;;;;19.60;34.50;;;;;;8367004;28;19927;-43
2023/01/25 21:10:09;;;;;;;;;;;19.60;34.50;;;;;;8367478;28;19924;-44
2023/01/25 21:14:10;;;;;;;;;;;19.60;34.50;;;;;;8367041;28;20404;-44
2023/01/25 21:18:10;;;;;;;;;;;19.60;34.50;;;;;;8366612;28;19917;-46
2023/01/25 21:22:11;;;;;;;;;;;19.60;34.40;;;;;;8367169;28;19920;-44
2023/01/25 21:26:12;;;;;;;;;;;19.60;34.40;;;;;;8367067;28;19917;-45
2023/01/25 21:30:14;;;;;;;;;;;19.60;34.40;;;;;;8366277;28;19925;-45
2023/01/25 21:34:14;;;;;;;;;;;19.60;34.40;;;;;;8364420;28;19917;-46
2023/01/25 21:38:15;;;;;;;;;;;19.50;34.30;;;;;;8365312;28;20344;-45
2023/01/25 21:42:15;;;;;;;;;;;19.40;34.30;;;;;;8366074;28;19975;-45
2023/01/25 21:46:24;;;;;;;;;;;19.40;34.30;;;;;;8364910;28;19924;-45
2023/01/25 21:54:44;;;;;;;;;;;19.40;34.30;;;;;;8367722;28;19962;-45
2023/01/25 21:58:46;;;;;;;;;;;19.30;34.30;;;;;;8365906;28;19921;-44
2023/01/25 22:02:49;;;;;;;;;;;19.30;34.30;;;;;;8365620;28;19916;-45
2023/01/25 22:06:53;;;;;;;;;;;19.30;34.30;;;;;;8366253;28;19939;-44
2023/01/25 22:11:00;;;;;;;;;;;19.30;34.40;;;;;;8365626;28;19996;-44
2023/01/25 22:15:01;;;;;;;;;;;19.20;34.30;;;;;;8364552;28;19920;-43
2023/01/25 22:19:02;;;;;;;;;;;19.20;34.40;;;;;;8365359;28;20376;-45
2023/01/25 22:23:02;;;;;;;;;;;19.20;34.40;;;;;;8364992;28;19913;-43
2023/01/25 22:27:21;;;;;;;;;;;19.10;34.40;;;;;;8364593;28;20348;-44
2023/01/25 22:31:23;;;;;;;;;;;19.10;34.50;;;;;;8364520;28;19987;-44
2023/01/25 22:35:23;;;;;;;;;;;19.10;34.60;;;;;;8364799;28;19921;-45
2023/01/25 22:39:24;;;;;;;;;;;19.00;34.60;;;;;;8363967;28;19917;-43
2023/01/25 22:43:24;;;;;;;;;;;19.00;34.60;;;;;;8364236;28;20447;-43
2023/01/25 22:47:25;;;;;;;;;;;18.90;34.70;;;;;;8363657;28;19917;-42
2023/01/25 22:51:26;;;;;;;;;;;18.90;34.70;;;;;;8363393;28;19924;-43
2023/01/25 22:55:28;;;;;;;;;;;18.90;34.80;;;;;;8364353;28;19928;-43
2023/01/25 22:59:28;;;;;;;;;;;18.80;34.80;;;;;;8363564;28;19928;-43
2023/01/25 23:03:29;;;;;;;;;;;18.80;34.80;;;;;;8362648;28;19913;-43
2023/01/25 23:07:29;;;;;;;;;;;18.80;34.90;;;;;;8363173;28;19913;-43
2023/01/25 23:11:34;;;;;;;;;;;18.70;34.90;;;;;;8362768;28;19924;-42
2023/01/25 23:15:34;;;;;;;;;;;18.70;35.00;;;;;;8363517;28;19956;-43
2023/01/25 23:19:34;;;;;;;;;;;18.60;35.00;;;;;;8363418;28;19917;-43
2023/01/25 23:23:35;;;;;;;;;;;18.60;35.00;;;;;;8362849;28;20025;-43
2023/01/25 23:27:36;;;;;;;;;;;18.60;35.10;;;;;;8363175;28;19920;-43
2023/01/25 23:31:36;;;;;;;;;;;18.60;35.10;;;;;;8362846;28;19925;-44
2023/01/25 23:35:37;;;;;;;;;;;18.50;35.00;;;;;;8362342;28;19917;-45
2023/01/25 23:39:37;;;;;;;;;;;18.50;35.10;;;;;;8363292;28;19921;-43
2023/01/25 23:43:38;;;;;;;;;;;18.50;35.10;;;;;;8362734;28;19923;-44